Time;durP1;ratioP1;P1;durP2;ratioP2;P2;SDS_P1;SDS_P2;PMS_P1;PMS_P2;Temp;Humidity;BMP_temperature;BMP_pressure;BME280_temperature;BME280_humidity;BME280_pressure;Samples;Min_cycle;Max_cycle;Signal;HPM_P1;HPM_P2
2023/12/17 00:01:47;;;;;;;26.00;15.00;;;8.90;99.90;;;;;;5211474;28;20809;-51
2023/12/17 00:04:21;;;;;;;25.40;16.43;;;8.80;99.90;;;;;;5226793;28;20187;-50
2023/12/17 00:06:55;;;;;;;40.37;17.80;;;8.70;99.90;;;;;;5227232;28;20190;-50
2023/12/17 00:09:25;;;;;;;31.97;18.23;;;8.80;99.90;;;;;;5212034;28;20469;-51
2023/12/17 00:12:05;;;;;;;28.90;17.43;;;8.70;99.90;;;;;;5224427;28;20437;-49
2023/12/17 00:14:36;;;;;;;48.33;19.40;;;8.80;99.90;;;;;;5223209;28;20183;-49
2023/12/17 00:17:07;;;;;;;30.27;17.83;;;8.80;99.90;;;;;;5204129;28;20434;-52
2023/12/17 00:19:38;;;;;;;33.70;17.57;;;8.80;99.90;;;;;;5210291;28;20467;-50
2023/12/17 00:22:11;;;;;;;40.63;18.27;;;8.70;99.90;;;;;;5210540;28;20545;-52
2023/12/17 00:24:44;;;;;;;31.23;17.47;;;8.90;99.90;;;;;;5211454;28;20261;-49
2023/12/17 00:27:15;;;;;;;20.67;15.10;;;8.80;99.90;;;;;;5225140;28;21019;-51
2023/12/17 00:29:47;;;;;;;26.20;16.40;;;8.70;99.90;;;;;;5225797;28;20475;-50
2023/12/17 00:32:17;;;;;;;32.67;19.33;;;8.80;99.90;;;;;;5220315;28;21738;-49
2023/12/17 00:34:48;;;;;;;27.63;16.60;;;8.80;99.90;;;;;;5222214;28;20462;-51
2023/12/17 00:37:22;;;;;;;30.80;17.23;;;8.70;99.90;;;;;;5208235;28;20199;-48
2023/12/17 00:39:53;;;;;;;28.17;16.80;;;8.70;99.90;;;;;;5210266;28;20952;-50
2023/12/17 00:42:24;;;;;;;28.90;16.60;;;8.80;99.90;;;;;;5208863;28;20563;-50
2023/12/17 00:44:55;;;;;;;33.37;18.23;;;8.70;99.90;;;;;;5209669;28;20498;-50
2023/12/17 00:47:26;;;;;;;29.70;16.13;;;8.70;99.90;;;;;;5224414;28;20996;-51
2023/12/17 00:50:00;;;;;;;30.97;17.47;;;8.80;99.90;;;;;;5222603;28;20209;-50
2023/12/17 00:52:32;;;;;;;32.20;18.23;;;8.80;99.90;;;;;;5220859;28;20187;-49
2023/12/17 00:55:03;;;;;;;34.73;18.20;;;8.80;99.90;;;;;;5226035;28;20461;-51
2023/12/17 00:57:54;;;;;;;25.17;15.90;;;8.70;99.90;;;;;;5210750;28;20444;-51
2023/12/17 01:00:27;;;;;;;32.83;17.90;;;8.70;99.90;;;;;;5222701;28;20659;-50
2023/12/17 01:03:04;;;;;;;31.50;17.50;;;8.80;99.90;;;;;;5210462;28;20529;-51
2023/12/17 01:05:36;;;;;;;34.10;15.63;;;8.80;99.90;;;;;;5209063;28;20441;-50
2023/12/17 01:08:06;;;;;;;30.83;17.97;;;8.80;99.90;;;;;;5207507;28;20921;-49
2023/12/17 01:10:43;;;;;;;33.83;16.63;;;8.80;99.90;;;;;;5207065;28;20969;-49
2023/12/17 01:13:16;;;;;;;23.40;15.73;;;8.80;99.90;;;;;;5203544;28;20187;-49
2023/12/17 01:15:50;;;;;;;32.97;16.60;;;8.80;99.90;;;;;;5227189;28;20516;-50
2023/12/17 01:18:21;;;;;;;34.27;16.93;;;8.90;99.90;;;;;;5205998;28;20457;-50
2023/12/17 01:20:55;;;;;;;26.53;15.77;;;8.90;99.90;;;;;;5224089;28;20507;-49
2023/12/17 01:23:26;;;;;;;24.03;16.33;;;8.90;99.90;;;;;;5210009;28;20210;-50
2023/12/17 01:26:00;;;;;;;26.53;16.27;;;8.80;99.90;;;;;;5223140;28;20530;-50
2023/12/17 01:28:35;;;;;;;23.70;16.70;;;8.80;99.90;;;;;;5219870;28;20812;-50
2023/12/17 01:31:07;;;;;;;26.27;15.63;;;8.80;99.90;;;;;;5224658;28;20440;-52
2023/12/17 01:33:44;;;;;;;25.00;15.80;;;8.80;99.90;;;;;;5224964;28;20442;-50
2023/12/17 01:36:15;;;;;;;32.10;17.63;;;8.80;99.90;;;;;;5204374;28;20459;-50
2023/12/17 01:38:49;;;;;;;28.50;16.00;;;8.90;99.90;;;;;;5207190;28;20994;-50
2023/12/17 01:41:23;;;;;;;26.20;17.10;;;8.80;99.90;;;;;;5226802;28;20649;-49
2023/12/17 01:43:57;;;;;;;27.60;16.57;;;8.80;99.90;;;;;;5225558;28;20943;-50
2023/12/17 01:46:34;;;;;;;30.97;17.27;;;8.80;99.90;;;;;;5208839;28;20425;-52
2023/12/17 01:49:06;;;;;;;29.80;17.20;;;8.80;99.90;;;;;;5226878;28;20820;-49
2023/12/17 01:51:38;;;;;;;33.47;16.53;;;8.80;99.90;;;;;;5209759;28;20468;-49
2023/12/17 01:54:10;;;;;;;27.80;15.00;;;8.90;99.90;;;;;;5220779;28;20452;-49
2023/12/17 01:56:41;;;;;;;24.83;17.00;;;8.80;99.90;;;;;;5224976;28;20469;-51
2023/12/17 01:59:12;;;;;;;28.00;14.77;;;9.00;99.90;;;;;;5223757;28;20457;-50
2023/12/17 02:01:47;;;;;;;32.00;16.70;;;8.90;99.90;;;;;;5206843;28;20508;-50
2023/12/17 02:04:28;;;;;;;26.37;15.37;;;8.80;99.90;;;;;;5224345;28;20420;-53
2023/12/17 02:07:12;;;;;;;27.37;15.97;;;8.80;99.90;;;;;;5224268;28;20416;-50
2023/12/17 02:09:55;;;;;;;27.67;15.87;;;8.90;99.90;;;;;;5208373;28;20429;-51
2023/12/17 02:12:34;;;;;;;33.57;16.40;;;8.90;99.90;;;;;;5214903;28;20446;-51
2023/12/17 02:15:05;;;;;;;25.87;15.57;;;8.80;99.90;;;;;;5204556;28;20551;-51
2023/12/17 02:17:39;;;;;;;27.73;16.70;;;8.90;99.90;;;;;;5223826;28;21024;-50
2023/12/17 02:20:10;;;;;;;27.27;16.23;;;8.80;99.90;;;;;;5204734;28;20433;-51
2023/12/17 02:22:45;;;;;;;26.20;16.30;;;8.80;99.90;;;;;;5220793;28;20938;-51
2023/12/17 02:25:16;;;;;;;22.40;16.07;;;8.80;99.90;;;;;;5208669;28;20428;-51
2023/12/17 02:27:50;;;;;;;26.80;16.53;;;8.80;99.90;;;;;;5224729;28;20809;-51
2023/12/17 02:30:20;;;;;;;26.97;17.00;;;8.90;99.90;;;;;;5201035;28;20940;-51
2023/12/17 02:32:54;;;;;;;24.60;15.70;;;8.90;99.90;;;;;;5208398;28;20854;-49
2023/12/17 02:35:25;;;;;;;24.50;15.70;;;8.90;99.90;;;;;;5209917;28;20229;-51
2023/12/17 02:37:56;;;;;;;31.53;16.53;;;8.80;99.90;;;;;;5226842;28;20445;-52
2023/12/17 02:40:27;;;;;;;25.60;16.00;;;8.90;99.90;;;;;;5208964;28;20418;-52
2023/12/17 02:42:58;;;;;;;35.30;17.37;;;8.90;99.90;;;;;;5206408;28;20236;-51
2023/12/17 02:45:29;;;;;;;26.57;16.90;;;8.90;99.90;;;;;;5202841;28;20210;-51
2023/12/17 02:47:59;;;;;;;27.97;16.37;;;8.90;99.90;;;;;;5192220;28;20457;-50
2023/12/17 02:50:30;;;;;;;26.10;15.53;;;8.80;99.90;;;;;;5203384;28;20183;-52
2023/12/17 02:53:01;;;;;;;25.13;16.07;;;8.90;99.90;;;;;;5223868;28;20182;-50
2023/12/17 02:55:32;;;;;;;28.10;16.37;;;8.90;99.90;;;;;;5207110;28;20210;-51
2023/12/17 02:58:06;;;;;;;25.30;16.50;;;8.90;99.90;;;;;;5225385;28;20614;-51
2023/12/17 03:00:50;;;;;;;25.27;16.17;;;8.90;99.90;;;;;;5205993;28;20929;-51
2023/12/17 03:03:27;;;;;;;23.40;15.10;;;8.90;99.90;;;;;;5208531;28;21005;-52
2023/12/17 03:06:01;;;;;;;21.63;14.57;;;8.90;99.90;;;;;;5208515;28;20433;-51
2023/12/17 03:08:32;;;;;;;22.87;15.53;;;8.90;99.90;;;;;;5208084;28;20477;-53
2023/12/17 03:11:11;;;;;;;21.97;14.33;;;8.90;99.90;;;;;;5208586;28;20438;-50
2023/12/17 03:13:45;;;;;;;23.97;15.70;;;9.00;99.90;;;;;;5208561;28;22149;-52
2023/12/17 03:16:15;;;;;;;22.43;15.90;;;9.00;99.90;;;;;;5210561;28;20968;-51
2023/12/17 03:18:52;;;;;;;23.63;15.80;;;8.90;99.90;;;;;;5212594;28;20474;-52
2023/12/17 03:24:25;;;;;;;31.27;15.60;;;8.90;99.90;;;;;;5213876;28;20425;-51
2023/12/17 03:27:05;;;;;;;23.43;16.10;;;8.90;99.90;;;;;;5228184;28;20474;-51
2023/12/17 03:29:36;;;;;;;25.20;16.43;;;9.00;99.90;;;;;;5230929;28;20203;-51
2023/12/17 03:32:07;;;;;;;21.77;15.30;;;9.00;99.90;;;;;;5212281;28;20971;-52
2023/12/17 03:34:41;;;;;;;27.37;16.13;;;9.00;99.90;;;;;;5212038;28;20425;-51
2023/12/17 03:37:12;;;;;;;23.47;14.70;;;9.00;99.90;;;;;;5226837;28;20179;-51
2023/12/17 03:39:48;;;;;;;23.60;15.60;;;8.90;99.90;;;;;;5211309;28;20429;-51
2023/12/17 03:42:22;;;;;;;25.13;15.93;;;8.90;99.90;;;;;;5229467;28;20763;-52
2023/12/17 03:45:07;;;;;;;21.73;14.40;;;8.90;99.90;;;;;;5209163;28;20815;-52
2023/12/17 03:47:43;;;;;;;27.50;16.07;;;9.00;99.90;;;;;;5209970;28;20806;-51
2023/12/17 03:50:15;;;;;;;24.30;15.30;;;8.90;99.90;;;;;;5226789;28;20815;-52
2023/12/17 03:52:47;;;;;;;24.07;16.83;;;8.90;99.90;;;;;;5229257;28;20455;-51
2023/12/17 03:55:26;;;;;;;28.47;15.50;;;8.90;99.90;;;;;;5210615;28;20461;-51
2023/12/17 03:58:00;;;;;;;32.13;15.77;;;8.90;99.90;;;;;;5230050;28;20503;-51
2023/12/17 04:00:35;;;;;;;24.33;15.53;;;9.00;99.90;;;;;;5223556;28;20487;-51
2023/12/17 04:03:06;;;;;;;26.93;15.63;;;9.00;99.90;;;;;;5209072;28;20429;-53
2023/12/17 04:05:39;;;;;;;21.87;14.63;;;9.00;99.90;;;;;;5204322;28;20532;-52
2023/12/17 04:08:13;;;;;;;21.33;14.87;;;9.00;99.90;;;;;;5220736;28;20287;-49
2023/12/17 04:10:44;;;;;;;23.83;15.33;;;9.00;99.90;;;;;;5210150;28;20440;-50
2023/12/17 04:13:18;;;;;;;31.57;14.60;;;9.00;99.90;;;;;;5211907;28;20512;-49
2023/12/17 04:15:54;;;;;;;25.00;14.43;;;9.00;99.90;;;;;;5220208;28;20699;-51
2023/12/17 04:18:28;;;;;;;29.00;17.17;;;9.00;99.90;;;;;;5228361;28;20460;-50
2023/12/17 04:21:01;;;;;;;25.10;15.77;;;9.00;99.90;;;;;;5192961;28;20433;-49
2023/12/17 04:23:38;;;;;;;22.60;14.60;;;9.00;99.90;;;;;;5226876;28;20457;-50
2023/12/17 04:26:14;;;;;;;23.43;15.77;;;9.00;99.90;;;;;;5225677;28;20531;-49
2023/12/17 04:28:45;;;;;;;31.33;16.60;;;8.90;99.90;;;;;;5226323;28;20433;-49
2023/12/17 04:31:16;;;;;;;27.03;17.00;;;8.90;99.90;;;;;;5228163;28;20750;-49
2023/12/17 04:33:46;;;;;;;21.20;15.67;;;8.90;99.90;;;;;;5226873;28;20569;-49
2023/12/17 04:36:20;;;;;;;23.20;15.80;;;8.90;99.90;;;;;;5225241;28;20249;-49
2023/12/17 04:38:51;;;;;;;24.97;15.07;;;8.80;99.90;;;;;;5211681;28;20195;-50
2023/12/17 04:41:22;;;;;;;26.53;15.10;;;9.00;99.90;;;;;;5209779;28;20432;-50
2023/12/17 04:44:05;;;;;;;24.67;14.43;;;9.00;99.90;;;;;;5205303;28;20171;-49
2023/12/17 04:46:42;;;;;;;24.53;15.13;;;9.00;99.90;;;;;;5223598;28;20459;-51
2023/12/17 04:49:13;;;;;;;22.43;15.40;;;8.90;99.90;;;;;;5210215;28;20791;-50
2023/12/17 04:51:44;;;;;;;23.93;16.00;;;9.00;99.90;;;;;;5205645;28;20440;-50
2023/12/17 04:54:15;;;;;;;23.40;15.67;;;9.00;99.90;;;;;;5212616;28;20679;-49
2023/12/17 04:56:45;;;;;;;22.90;14.77;;;9.00;99.90;;;;;;5211651;28;20257;-56
2023/12/17 04:59:30;;;;;;;23.73;15.70;;;8.90;99.90;;;;;;5205277;28;20464;-49
2023/12/17 05:02:01;;;;;;;20.63;15.63;;;8.90;99.90;;;;;;5219163;28;20197;-51
2023/12/17 05:04:32;;;;;;;27.23;16.40;;;9.00;99.90;;;;;;5211466;28;20514;-49
2023/12/17 05:07:03;;;;;;;23.47;15.57;;;9.00;99.90;;;;;;5226784;28;20183;-51
2023/12/17 05:09:41;;;;;;;22.40;15.00;;;9.00;99.90;;;;;;5228777;28;20582;-50
2023/12/17 05:12:11;;;;;;;19.37;14.33;;;9.00;99.90;;;;;;5208445;28;20369;-49
2023/12/17 05:14:45;;;;;;;29.40;16.10;;;9.00;99.90;;;;;;5223983;28;20974;-50
2023/12/17 05:17:37;;;;;;;25.20;15.00;;;9.00;99.90;;;;;;5223483;28;20212;-48
2023/12/17 05:20:31;;;;;;;23.00;14.87;;;9.00;99.90;;;;;;5219148;28;20799;-49
2023/12/17 05:23:02;;;;;;;22.73;15.47;;;8.90;99.90;;;;;;5171184;28;20452;-50
2023/12/17 05:25:36;;;;;;;21.30;13.43;;;9.00;99.90;;;;;;5225083;28;20895;-49
2023/12/17 05:28:11;;;;;;;21.60;13.43;;;9.00;99.90;;;;;;5225469;28;20543;-50
2023/12/17 05:30:54;;;;;;;25.80;16.10;;;9.00;99.90;;;;;;5220604;28;20447;-49
2023/12/17 05:33:33;;;;;;;23.37;15.90;;;9.00;99.90;;;;;;5224021;28;20460;-50
2023/12/17 05:36:16;;;;;;;26.40;14.27;;;9.00;99.90;;;;;;5207870;28;20469;-49
2023/12/17 05:38:47;;;;;;;19.70;14.00;;;9.00;99.90;;;;;;5221682;28;20465;-48
2023/12/17 05:41:28;;;;;;;;;;;;;;;;;;;;;
2023/12/17 05:44:04;;;;;;;17.80;13.20;;;9.10;99.90;;;;;;5226309;28;20797;-50
2023/12/17 05:46:35;;;;;;;19.30;13.00;;;9.10;99.90;;;;;;5205818;28;20487;-49
2023/12/17 05:49:06;;;;;;;20.73;14.33;;;9.00;99.90;;;;;;5226085;28;20465;-50
2023/12/17 05:51:37;;;;;;;24.33;14.10;;;9.10;99.90;;;;;;5223163;28;20545;-49
2023/12/17 05:54:11;;;;;;;23.77;14.67;;;9.10;99.90;;;;;;5225889;28;20185;-50
2023/12/17 05:56:42;;;;;;;26.23;13.77;;;9.20;99.90;;;;;;5207071;28;20265;-50
2023/12/17 05:59:13;;;;;;;22.20;13.63;;;9.10;99.90;;;;;;5228161;28;21449;-49
2023/12/17 06:02:08;;;;;;;19.73;13.40;;;9.10;99.90;;;;;;5210553;28;20425;-49
2023/12/17 06:04:38;;;;;;;18.70;13.27;;;9.10;99.90;;;;;;5226965;28;20191;-49
2023/12/17 06:07:09;;;;;;;15.90;12.73;;;9.20;99.90;;;;;;5212953;28;20955;-49
2023/12/17 06:09:51;;;;;;;24.47;13.33;;;9.10;99.90;;;;;;5225493;28;20191;-49
2023/12/17 06:12:34;;;;;;;27.03;13.33;;;9.00;99.90;;;;;;5225407;28;20197;-49
2023/12/17 06:15:07;;;;;;;18.83;13.40;;;9.00;99.90;;;;;;5213986;28;20461;-51
2023/12/17 06:17:40;;;;;;;19.73;13.77;;;9.10;99.90;;;;;;5222791;28;20458;-50
2023/12/17 06:20:11;;;;;;;21.50;13.13;;;9.00;99.90;;;;;;5222339;28;20843;-49
2023/12/17 06:22:50;;;;;;;19.40;12.90;;;9.00;99.90;;;;;;5207456;28;20488;-50
2023/12/17 06:25:21;;;;;;;16.40;12.80;;;9.00;99.90;;;;;;5227238;28;20480;-48
2023/12/17 06:27:57;;;;;;;20.03;13.00;;;9.00;99.90;;;;;;5220570;28;20953;-52
2023/12/17 06:30:32;;;;;;;14.10;10.90;;;9.10;99.90;;;;;;5221286;28;20429;-50
2023/12/17 06:33:03;;;;;;;19.50;12.00;;;9.00;99.90;;;;;;5220271;28;20884;-51
2023/12/17 06:35:37;;;;;;;19.27;12.37;;;9.00;99.90;;;;;;5206821;28;21236;-50
2023/12/17 06:38:08;;;;;;;19.13;12.40;;;9.00;99.90;;;;;;5211610;28;20199;-50
2023/12/17 06:40:42;;;;;;;16.67;11.47;;;9.10;99.90;;;;;;5208761;28;20421;-51
2023/12/17 06:43:13;;;;;;;19.10;12.23;;;9.00;99.90;;;;;;5223416;28;20426;-52
2023/12/17 06:45:44;;;;;;;18.20;12.30;;;9.10;99.90;;;;;;5206308;28;20437;-51
2023/12/17 06:48:20;;;;;;;16.10;10.10;;;9.20;99.90;;;;;;5226237;28;20465;-51
2023/12/17 06:50:51;;;;;;;12.40;10.30;;;9.20;99.90;;;;;;5215050;28;20509;-51
2023/12/17 06:53:22;;;;;;;18.10;12.40;;;9.10;99.90;;;;;;5227036;28;20849;-51
2023/12/17 06:56:02;;;;;;;13.50;10.67;;;9.20;99.90;;;;;;5226816;28;20198;-52
2023/12/17 06:58:42;;;;;;;15.37;10.67;;;9.20;99.90;;;;;;5212675;28;20457;-50
2023/12/17 07:01:13;;;;;;;15.40;10.73;;;9.10;99.90;;;;;;5211199;28;20467;-49
2023/12/17 07:03:50;;;;;;;20.77;11.60;;;9.20;99.90;;;;;;5213376;28;20434;-50
2023/12/17 07:06:21;;;;;;;19.77;11.67;;;9.20;99.90;;;;;;5211877;28;20186;-48
2023/12/17 07:08:52;;;;;;;12.30;9.47;;;9.10;99.90;;;;;;5225138;28;20968;-48
2023/12/17 07:11:26;;;;;;;16.90;11.03;;;9.10;99.90;;;;;;5228373;28;21051;-50
2023/12/17 07:14:03;;;;;;;11.87;10.40;;;9.10;99.90;;;;;;5227792;28;20430;-49
2023/12/17 07:16:38;;;;;;;15.20;11.10;;;9.10;99.90;;;;;;5228059;28;20563;-51
2023/12/17 07:19:12;;;;;;;15.37;10.30;;;9.20;99.90;;;;;;5208254;28;20467;-50
2023/12/17 07:21:53;;;;;;;12.07;10.33;;;9.20;99.90;;;;;;5203055;28;20449;-49
2023/12/17 07:24:25;;;;;;;14.17;10.57;;;9.20;99.90;;;;;;5226929;28;20445;-50
2023/12/17 07:26:56;;;;;;;14.40;10.93;;;9.10;99.90;;;;;;5209669;28;20449;-49
2023/12/17 07:29:32;;;;;;;16.37;10.60;;;9.20;99.90;;;;;;5210960;28;20473;-49
2023/12/17 07:32:04;;;;;;;14.50;10.00;;;9.20;99.90;;;;;;5228088;28;20185;-49
2023/12/17 07:34:34;;;;;;;12.50;10.27;;;9.20;99.90;;;;;;5226371;28;20957;-50
2023/12/17 07:37:07;;;;;;;12.30;9.10;;;9.20;99.90;;;;;;5213483;28;20499;-49
2023/12/17 07:39:38;;;;;;;14.00;9.93;;;9.20;99.90;;;;;;5228078;28;20195;-50
2023/12/17 07:42:09;;;;;;;12.77;10.10;;;9.20;99.90;;;;;;5225737;28;20516;-51
2023/12/17 07:44:40;;;;;;;12.13;9.60;;;9.20;99.90;;;;;;5210344;28;20855;-51
2023/12/17 07:47:11;;;;;;;11.13;8.60;;;9.20;99.90;;;;;;5211744;28;20240;-51
2023/12/17 07:49:43;;;;;;;12.33;9.57;;;9.20;99.90;;;;;;5228478;28;20187;-51
2023/12/17 07:52:15;;;;;;;11.00;8.37;;;9.30;99.90;;;;;;5230509;28;20473;-51
2023/12/17 07:54:45;;;;;;;14.27;9.53;;;9.30;99.90;;;;;;5215274;28;20441;-51
2023/12/17 07:57:16;;;;;;;12.60;8.63;;;9.30;99.90;;;;;;5228856;28;20441;-50
2023/12/17 07:59:51;;;;;;;9.33;8.23;;;9.30;99.90;;;;;;5229350;28;21593;-50
2023/12/17 08:02:21;;;;;;;10.00;8.77;;;9.30;99.90;;;;;;5212348;28;20174;-51
2023/12/17 08:04:53;;;;;;;9.60;8.43;;;9.40;99.90;;;;;;5233752;28;20428;-49
2023/12/17 08:07:26;;;;;;;10.03;8.00;;;9.40;99.90;;;;;;5214166;28;20198;-50
2023/12/17 08:09:58;;;;;;;8.40;7.60;;;9.50;99.90;;;;;;5235610;28;20485;-49
2023/12/17 08:12:29;;;;;;;9.13;8.17;;;9.40;99.90;;;;;;5212451;28;20793;-50
2023/12/17 08:15:04;;;;;;;11.70;8.00;;;9.50;99.90;;;;;;5228443;28;20433;-51
2023/12/17 08:17:38;;;;;;;9.97;8.23;;;9.50;99.90;;;;;;5211567;28;20456;-49
2023/12/17 08:20:12;;;;;;;10.00;8.57;;;9.60;99.90;;;;;;5228586;28;20968;-52
2023/12/17 08:22:43;;;;;;;12.40;8.80;;;9.60;99.90;;;;;;5224583;28;20433;-50
2023/12/17 08:25:17;;;;;;;7.97;7.03;;;9.70;99.90;;;;;;5217128;28;20859;-52
2023/12/17 08:27:47;;;;;;;12.57;7.17;;;9.70;99.90;;;;;;5218626;28;21101;-50
2023/12/17 08:30:18;;;;;;;8.53;7.63;;;9.60;99.90;;;;;;5193974;28;20532;-50
2023/12/17 08:32:49;;;;;;;9.20;7.80;;;9.60;99.90;;;;;;5225761;28;20701;-50
2023/12/17 08:35:19;;;;;;;10.20;6.80;;;9.70;99.90;;;;;;5225577;28;20246;-52
2023/12/17 08:37:50;;;;;;;11.17;8.10;;;9.70;99.90;;;;;;5211314;28;20203;-51
2023/12/17 08:40:21;;;;;;;7.93;7.13;;;9.70;99.90;;;;;;5211863;28;20237;-51
2023/12/17 08:42:52;;;;;;;10.00;7.27;;;9.80;99.90;;;;;;5212706;28;20183;-50
2023/12/17 08:45:22;;;;;;;7.80;7.10;;;9.70;99.90;;;;;;5210526;28;20626;-51
2023/12/17 08:48:03;;;;;;;9.00;6.83;;;9.70;99.90;;;;;;5211913;28;20195;-51
2023/12/17 08:50:33;;;;;;;9.67;6.80;;;9.70;99.90;;;;;;5228014;28;20667;-50
2023/12/17 08:53:07;;;;;;;10.07;7.87;;;9.80;99.90;;;;;;5210560;28;20449;-50
2023/12/17 08:55:41;;;;;;;11.70;7.93;;;9.80;99.90;;;;;;5197052;28;20233;-50
2023/12/17 08:58:15;;;;;;;8.13;7.20;;;9.70;99.90;;;;;;5230415;28;20813;-50
2023/12/17 09:00:46;;;;;;;9.83;6.83;;;9.80;99.90;;;;;;5228505;28;20524;-50
2023/12/17 09:03:20;;;;;;;8.77;7.20;;;9.70;99.90;;;;;;5211034;28;20444;-52
2023/12/17 09:05:51;;;;;;;6.83;6.13;;;9.70;99.90;;;;;;5230136;28;20436;-50
2023/12/17 09:08:21;;;;;;;8.40;7.47;;;9.70;99.90;;;;;;5210051;28;20464;-51
2023/12/17 09:10:52;;;;;;;10.80;7.67;;;9.70;99.90;;;;;;5227345;28;20191;-50
2023/12/17 09:13:23;;;;;;;10.50;8.07;;;9.70;99.90;;;;;;5207889;28;20186;-50
2023/12/17 09:15:54;;;;;;;8.90;6.93;;;9.80;99.90;;;;;;5208445;28;20211;-50
2023/12/17 09:18:28;;;;;;;9.03;7.00;;;9.80;99.90;;;;;;5224978;28;20457;-50
2023/12/17 09:21:01;;;;;;;8.17;7.37;;;9.90;99.90;;;;;;5222863;28;20208;-50
2023/12/17 09:23:32;;;;;;;7.23;6.30;;;9.90;99.90;;;;;;5227938;28;20453;-50
2023/12/17 09:26:03;;;;;;;8.70;7.07;;;9.90;99.90;;;;;;5226870;28;20472;-52
2023/12/17 09:28:35;;;;;;;8.60;7.10;;;10.00;99.90;;;;;;5222610;28;20199;-52
2023/12/17 09:31:08;;;;;;;8.47;6.30;;;10.00;99.90;;;;;;5208374;28;20532;-49
2023/12/17 09:33:42;;;;;;;6.87;6.17;;;10.00;99.90;;;;;;5222215;28;20430;-52
2023/12/17 09:36:14;;;;;;;7.73;6.93;;;10.00;99.90;;;;;;5208432;28;20465;-50
2023/12/17 09:38:45;;;;;;;10.27;7.40;;;10.10;99.90;;;;;;5212270;28;20536;-49
2023/12/17 09:41:16;;;;;;;12.70;7.20;;;10.10;99.90;;;;;;5211196;28;20512;-51
2023/12/17 09:43:47;;;;;;;8.03;7.23;;;10.00;99.90;;;;;;5227773;28;21588;-51
2023/12/17 09:46:19;;;;;;;8.40;7.60;;;10.00;99.90;;;;;;5224704;28;20182;-52
2023/12/17 09:48:49;;;;;;;9.50;7.17;;;10.10;99.90;;;;;;5225289;28;20202;-49
2023/12/17 09:51:23;;;;;;;8.83;6.53;;;10.10;99.90;;;;;;5209301;28;20455;-50
2023/12/17 09:53:56;;;;;;;7.40;6.70;;;10.10;99.90;;;;;;5206857;28;20179;-49
2023/12/17 09:56:36;;;;;;;7.93;7.13;;;10.10;99.90;;;;;;5220726;28;20488;-51
2023/12/17 09:59:17;;;;;;;8.17;7.10;;;10.20;99.90;;;;;;5225749;28;20758;-50
2023/12/17 10:01:48;;;;;;;9.30;6.43;;;10.20;99.90;;;;;;5212155;28;20452;-50
2023/12/17 10:04:30;;;;;;;7.13;6.47;;;10.10;99.90;;;;;;5202549;28;20437;-49
2023/12/17 10:07:01;;;;;;;8.00;7.20;;;10.30;99.90;;;;;;5220568;28;20475;-50
2023/12/17 10:09:35;;;;;;;7.67;6.73;;;10.30;99.90;;;;;;5228109;23;20485;-49
2023/12/17 10:12:06;;;;;;;8.07;7.10;;;10.30;99.90;;;;;;5221030;28;20921;-49
2023/12/17 10:14:40;;;;;;;8.37;7.50;;;10.20;99.90;;;;;;5224377;28;21015;-49
2023/12/17 10:17:11;;;;;;;11.33;6.97;;;10.20;99.90;;;;;;5223885;28;20461;-49
2023/12/17 10:19:42;;;;;;;13.27;6.43;;;10.20;99.90;;;;;;5223518;28;20549;-50
2023/12/17 10:22:12;;;;;;;9.30;7.30;;;10.10;99.90;;;;;;5221530;28;20580;-50
2023/12/17 10:24:43;;;;;;;9.57;7.10;;;10.20;99.90;;;;;;5216641;28;20176;-50
2023/12/17 10:27:19;;;;;;;8.50;7.43;;;10.20;99.90;;;;;;5218008;28;20214;-51
2023/12/17 10:29:51;;;;;;;7.10;6.20;;;10.30;99.90;;;;;;5221188;28;20499;-50
2023/12/17 10:32:24;;;;;;;7.23;6.63;;;10.10;99.90;;;;;;5221282;28;20439;-50
2023/12/17 10:34:54;;;;;;;7.97;6.10;;;10.10;99.90;;;;;;5217924;28;20440;-50
2023/12/17 10:37:27;;;;;;;6.00;5.40;;;10.20;99.90;;;;;;5212030;28;20435;-51
2023/12/17 10:39:58;;;;;;;7.33;6.63;;;10.20;99.90;;;;;;5222816;28;20570;-52
2023/12/17 10:42:30;;;;;;;8.13;6.40;;;10.30;99.90;;;;;;5222898;28;20505;-52
2023/12/17 10:45:02;;;;;;;6.63;5.97;;;10.30;99.90;;;;;;5224275;28;20932;-49
2023/12/17 10:47:34;;;;;;;10.23;7.07;;;10.40;99.90;;;;;;5221772;28;20531;-49
2023/12/17 10:50:05;;;;;;;7.30;5.80;;;10.50;99.90;;;;;;5221007;28;20429;-51
2023/12/17 10:52:39;;;;;;;9.17;7.43;;;10.50;99.90;;;;;;5220430;28;20437;-51
2023/12/17 10:55:09;;;;;;;8.60;6.93;;;10.50;99.90;;;;;;5222709;28;20441;-48
2023/12/17 10:57:45;;;;;;;6.90;5.60;;;10.50;99.90;;;;;;5222653;28;21375;-50
2023/12/17 11:00:19;;;;;;;8.57;6.30;;;10.50;99.90;;;;;;5223385;28;20182;-50
2023/12/17 11:02:53;;;;;;;6.57;6.00;;;10.40;99.90;;;;;;5222954;28;20429;-51
2023/12/17 11:05:24;;;;;;;7.00;6.30;;;10.60;99.90;;;;;;5222344;28;20433;-49
2023/12/17 11:07:56;;;;;;;8.13;6.80;;;10.50;99.90;;;;;;5220708;28;20606;-51
2023/12/17 11:10:27;;;;;;;10.40;6.83;;;10.60;99.90;;;;;;5222524;28;20223;-50
2023/12/17 11:13:00;;;;;;;7.90;6.30;;;10.80;99.90;;;;;;5222645;28;20964;-51
2023/12/17 11:15:31;;;;;;;9.73;6.80;;;10.80;99.90;;;;;;5222066;28;20210;-48
2023/12/17 11:18:02;;;;;;;6.17;5.57;;;10.70;99.90;;;;;;5218912;28;20453;-50
2023/12/17 11:20:40;;;;;;;6.80;6.13;;;10.80;99.90;;;;;;5221240;28;20806;-47
2023/12/17 11:23:10;;;;;;;8.17;5.80;;;10.80;99.90;;;;;;5222057;28;20182;-49
2023/12/17 11:25:41;;;;;;;8.10;6.77;;;10.70;99.90;;;;;;5223245;28;21333;-50
2023/12/17 11:28:30;;;;;;;6.30;5.50;;;10.70;99.90;;;;;;5216535;28;20210;-49
2023/12/17 11:31:02;;;;;;;6.43;5.60;;;10.70;99.90;;;;;;5222704;28;20211;-48
2023/12/17 11:33:33;;;;;;;8.83;5.47;;;10.60;99.90;;;;;;5226803;28;20441;-49
2023/12/17 11:36:10;;;;;;;6.23;5.50;;;10.60;99.90;;;;;;5226852;28;20464;-51
2023/12/17 11:38:40;;;;;;;7.40;6.30;;;10.70;99.90;;;;;;5230741;28;20519;-48
2023/12/17 11:41:11;;;;;;;9.33;6.27;;;10.60;99.90;;;;;;5227675;28;20528;-50
2023/12/17 11:43:42;;;;;;;6.70;6.07;;;10.60;99.90;;;;;;5226006;28;20240;-49
2023/12/17 11:46:14;;;;;;;8.00;6.80;;;10.60;99.90;;;;;;5225560;28;20368;-49
2023/12/17 11:48:44;;;;;;;7.13;6.43;;;10.70;99.90;;;;;;5226087;28;20214;-50
2023/12/17 11:51:24;;;;;;;11.83;7.20;;;10.70;99.90;;;;;;5223183;28;20444;-49
2023/12/17 11:53:55;;;;;;;9.20;6.33;;;10.70;99.90;;;;;;5225228;28;20197;-50
2023/12/17 11:56:29;;;;;;;12.80;6.83;;;10.70;99.90;;;;;;5217483;28;20960;-49
2023/12/17 11:59:00;;;;;;;8.00;7.07;;;10.80;99.90;;;;;;5224025;28;20202;-50
2023/12/17 12:01:31;;;;;;;7.20;6.50;;;10.70;99.90;;;;;;5225704;28;20973;-50
2023/12/17 12:04:01;;;;;;;9.07;7.10;;;10.70;99.90;;;;;;5224165;28;20222;-48
2023/12/17 12:06:32;;;;;;;7.07;6.37;;;10.70;99.90;;;;;;5218416;28;20245;-51
2023/12/17 12:09:03;;;;;;;6.63;6.00;;;10.60;99.90;;;;;;5199007;28;20226;-51
2023/12/17 12:11:33;;;;;;;8.90;7.20;;;10.50;99.90;;;;;;5200153;28;20184;-52
2023/12/17 12:14:04;;;;;;;7.67;6.43;;;10.60;99.90;;;;;;5204679;28;20197;-51
2023/12/17 12:16:42;;;;;;;6.77;6.17;;;10.60;99.90;;;;;;5219699;28;20215;-52
2023/12/17 12:19:13;;;;;;;8.30;6.33;;;10.60;99.90;;;;;;5220285;28;20776;-53
2023/12/17 12:21:48;;;;;;;8.60;7.17;;;10.50;99.90;;;;;;5219278;28;20536;-55
2023/12/17 12:24:21;;;;;;;10.93;7.40;;;10.60;99.90;;;;;;5216899;28;20191;-52
2023/12/17 12:26:52;;;;;;;7.23;6.53;;;10.80;99.90;;;;;;5219795;28;20542;-49
2023/12/17 12:29:23;;;;;;;7.23;6.53;;;10.60;99.90;;;;;;5221601;28;20491;-48
2023/12/17 12:31:53;;;;;;;7.53;5.73;;;10.60;99.90;;;;;;5221777;28;20191;-49
2023/12/17 12:34:33;;;;;;;6.73;6.07;;;10.60;99.90;;;;;;5222349;28;20191;-47
2023/12/17 12:37:04;;;;;;;6.57;5.80;;;10.50;99.90;;;;;;5213049;28;20214;-48
2023/12/17 12:39:46;;;;;;;9.90;7.43;;;10.50;99.90;;;;;;5219046;28;20462;-47
2023/12/17 12:42:17;;;;;;;6.57;6.07;;;10.50;99.90;;;;;;5221862;28;20625;-48
2023/12/17 12:44:49;;;;;;;10.50;6.80;;;10.50;99.90;;;;;;5221506;28;20517;-50
2023/12/17 12:47:22;;;;;;;6.57;6.00;;;10.40;99.90;;;;;;5217115;28;20676;-52
2023/12/17 12:49:52;;;;;;;6.43;5.70;;;10.30;99.90;;;;;;5211351;28;20552;-48
2023/12/17 12:52:23;;;;;;;6.97;6.27;;;10.20;99.90;;;;;;5218605;28;20551;-48
2023/12/17 12:54:54;;;;;;;6.03;5.43;;;10.20;99.90;;;;;;5211477;28;20213;-50
2023/12/17 12:57:25;;;;;;;7.70;6.20;;;10.20;99.90;;;;;;5221119;28;20462;-49
2023/12/17 12:59:55;;;;;;;11.30;8.47;;;10.10;99.90;;;;;;5223439;28;20692;-49
2023/12/17 13:02:26;;;;;;;16.93;10.30;;;10.00;99.90;;;;;;5222664;28;20182;-49
2023/12/17 13:04:57;;;;;;;7.73;7.00;;;10.00;99.90;;;;;;5217933;28;20194;-54
2023/12/17 13:07:27;;;;;;;7.57;6.40;;;9.90;99.90;;;;;;5220309;28;20190;-54
2023/12/17 13:09:58;;;;;;;10.20;7.00;;;9.80;99.90;;;;;;5221070;28;20753;-49
2023/12/17 13:12:28;;;;;;;9.70;7.17;;;9.70;99.90;;;;;;5220311;28;20310;-49
2023/12/17 13:14:59;;;;;;;7.27;6.23;;;9.60;99.90;;;;;;5222404;28;20647;-48
2023/12/17 13:17:31;;;;;;;7.60;6.90;;;9.70;99.90;;;;;;5219635;28;20238;-49